createdAt,value
2023-01-25T01:36:16.407Z,1018.34
2023-01-25T01:47:02.152Z,1018.28
2023-01-25T01:52:04.554Z,1018.21
2023-01-25T01:57:02.659Z,1018.09
2023-01-25T02:02:05.821Z,1017.99
2023-01-25T02:07:05.007Z,1017.86
2023-01-25T02:14:47.419Z,1017.83
2023-01-25T02:19:47.722Z,1017.76
2023-01-25T02:24:52.847Z,1017.79
2023-01-25T02:31:54.621Z,1017.55
2023-01-25T02:44:16.937Z,1017.47
2023-01-25T02:49:15.978Z,1017.32
2023-01-25T02:54:17.080Z,1017.26
2023-01-25T02:59:16.347Z,1017.20
2023-01-25T03:04:15.454Z,1017.18
2023-01-25T03:09:22.203Z,1017.16
2023-01-25T03:14:24.751Z,1017.13
2023-01-25T03:32:35.548Z,1017.06
2023-01-25T03:37:35.247Z,1017.06
2023-01-25T03:42:35.161Z,1016.95
2023-01-25T03:47:35.178Z,1016.87
2023-01-25T03:52:35.033Z,1016.78
2023-01-25T03:57:34.921Z,1016.68
2023-01-25T04:02:35.084Z,1016.65
2023-01-25T04:07:34.886Z,1016.67
2023-01-25T04:12:34.898Z,1016.69
2023-01-25T04:17:34.733Z,1016.53
2023-01-25T04:22:37.551Z,1016.56
2023-01-25T04:27:34.618Z,1016.53
2023-01-25T04:32:34.802Z,1016.53
2023-01-25T04:40:38.659Z,1016.43
2023-01-25T04:52:38.800Z,1016.52
2023-01-25T04:57:38.376Z,1016.48
2023-01-25T05:50:39.174Z,1016.36
2023-01-25T07:06:53.445Z,1016.20
2023-01-25T07:11:51.698Z,1016.08
2023-01-25T07:16:51.432Z,1015.99
2023-01-25T07:21:51.214Z,1016.00
2023-01-25T07:26:51.209Z,1015.98
2023-01-25T07:54:26.973Z,1015.79
2023-01-25T07:59:26.504Z,1015.77
2023-01-25T08:04:26.586Z,1015.66
2023-01-25T08:09:26.415Z,1015.60
2023-01-25T08:14:26.475Z,1015.56
2023-01-25T08:21:44.177Z,1015.58
2023-01-25T08:26:44.003Z,1015.47
2023-01-25T08:31:52.059Z,1015.41
2023-01-25T08:36:43.841Z,1015.40
2023-01-25T08:41:43.686Z,1015.30
2023-01-25T08:46:43.672Z,1015.29
2023-01-25T08:51:43.568Z,1015.26
2023-01-25T08:56:43.466Z,1015.24
2023-01-25T09:01:44.261Z,1015.22
2023-01-25T09:31:46.609Z,1014.95
2023-01-25T09:36:46.128Z,1014.94
2023-01-25T09:41:46.187Z,1014.89
2023-01-25T09:46:46.125Z,1014.91
2023-01-25T09:59:56.917Z,1014.87
2023-01-25T10:05:03.140Z,1014.76
2023-01-25T15:24:58.532Z,1010.06
2023-01-25T15:29:55.223Z,1009.93
2023-01-25T16:52:25.166Z,1009.48
2023-01-25T16:57:22.128Z,1009.34
2023-01-25T17:02:22.080Z,1009.31
2023-01-25T17:09:22.943Z,1009.24
2023-01-25T17:15:52.515Z,1009.18
2023-01-25T17:44:56.758Z,1009.02
2023-01-25T17:49:56.187Z,1008.98
2023-01-25T18:04:47.530Z,1008.82
2023-01-25T18:09:49.531Z,1008.72
2023-01-25T18:41:24.840Z,1008.29
2023-01-25T18:46:24.259Z,1008.24
2023-01-25T18:51:30.863Z,1008.03
2023-01-25T18:56:23.814Z,1008.00
2023-01-25T19:01:23.707Z,1008.02
2023-01-25T19:43:28.439Z,1007.87
2023-01-25T19:52:14.595Z,1007.70
2023-01-25T19:59:09.975Z,1007.49
2023-01-25T20:07:33.567Z,1007.51
2023-01-25T20:14:07.645Z,1007.31
2023-01-25T20:19:15.055Z,1007.34
2023-01-25T20:42:00.344Z,1006.89
2023-01-25T20:50:52.778Z,1006.73
2023-01-25T21:42:08.014Z,1006.90
2023-01-25T21:47:28.727Z,1006.77
2023-01-25T21:52:09.418Z,1006.73
2023-01-25T21:57:07.780Z,1006.61
2023-01-25T22:02:07.677Z,1006.55
2023-01-25T22:07:07.733Z,1006.59
2023-01-25T23:02:06.732Z,1006.06
2023-01-25T23:29:05.119Z,1005.61
2023-01-25T23:57:01.137Z,1005.53
